sensor_id;sensor_type;location;lat;lon;timestamp;pressure;altitude;pressure_sealevel;temperature;humidity
62111;BME280;48102;47.526;19.072;2023-04-03T03:40:33;100389.34;;;5.20;99.78
62111;BME280;48102;47.526;19.072;2023-04-03T03:43:37;100389.34;;;5.20;99.78
62111;BME280;48102;47.526;19.072;2023-04-03T03:46:40;100396.84;;;4.67;100.00
62111;BME280;48102;47.526;19.072;2023-04-03T03:49:43;100399.56;;;4.61;100.00
62111;BME280;48102;47.526;19.072;2023-04-03T03:52:46;100399.56;;;4.61;100.00
62111;BME280;48102;47.526;19.072;2023-04-03T03:55:49;100399.44;;;4.67;100.00
62111;BME280;48102;47.526;19.072;2023-04-03T03:58:52;100404.66;;;4.67;100.00
62111;BME280;48102;47.526;19.072;2023-04-03T04:01:55;100398.59;;;4.67;100.00
62111;BME280;48102;47.526;19.072;2023-04-03T04:04:58;100391.88;;;4.57;100.00
62111;BME280;48102;47.526;19.072;2023-04-03T04:08:01;100390.94;;;4.59;100.00
62111;BME280;48102;47.526;19.072;2023-04-03T04:11:04;100385.78;;;4.56;100.00
62111;BME280;48102;47.526;19.072;2023-04-03T04:14:07;100394.75;;;4.46;100.00
62111;BME280;48102;47.526;19.072;2023-04-03T04:17:10;100394.91;;;4.38;100.00
62111;BME280;48102;47.526;19.072;2023-04-03T04:20:13;100397.69;;;4.32;100.00
62111;BME280;48102;47.526;19.072;2023-04-03T04:23:17;100399.50;;;4.28;100.00
62111;BME280;48102;47.526;19.072;2023-04-03T04:26:21;100408.19;;;4.29;100.00
62111;BME280;48102;47.526;19.072;2023-04-03T04:29:24;100405.41;;;4.37;100.00
62111;BME280;48102;47.526;19.072;2023-04-03T04:32:27;100412.44;;;4.33;100.00
62111;BME280;48102;47.526;19.072;2023-04-03T04:35:30;100403.66;;;4.36;100.00
62111;BME280;48102;47.526;19.072;2023-04-03T04:38:33;100409.03;;;4.30;100.00
62111;BME280;48102;47.526;19.072;2023-04-03T04:41:36;100407.34;;;4.27;100.00
62111;BME280;48102;47.526;19.072;2023-04-03T04:44:39;100412.88;;;4.13;100.00
62111;BME280;48102;47.526;19.072;2023-04-03T04:47:42;100420.69;;;4.15;100.00
62111;BME280;48102;47.526;19.072;2023-04-03T04:50:45;100425.72;;;4.22;100.00
62111;BME280;48102;47.526;19.072;2023-04-03T04:53:48;100434.50;;;4.18;100.00
62111;BME280;48102;47.526;19.072;2023-04-03T04:56:51;100429.09;;;4.26;100.00
62111;BME280;48102;47.526;19.072;2023-04-03T04:59:55;100430.06;;;4.23;100.00
62111;BME280;48102;47.526;19.072;2023-04-03T05:02:58;100433.25;;;4.35;100.00
62111;BME280;48102;47.526;19.072;2023-04-03T05:06:01;100437.41;;;4.43;100.00
62111;BME280;48102;47.526;19.072;2023-04-03T05:09:05;100431.28;;;4.46;100.00
62111;BME280;48102;47.526;19.072;2023-04-03T05:12:08;100436.22;;;4.58;100.00
62111;BME280;48102;47.526;19.072;2023-04-03T05:15:11;100434.19;;;4.69;100.00
62111;BME280;48102;47.526;19.072;2023-04-03T05:18:14;100448.81;;;4.76;100.00
62111;BME280;48102;47.526;19.072;2023-04-03T05:21:17;100445.19;;;4.82;100.00
62111;BME280;48102;47.526;19.072;2023-04-03T05:24:26;100448.50;;;4.89;100.00
62111;BME280;48102;47.526;19.072;2023-04-03T05:27:29;100453.84;;;4.84;100.00
62111;BME280;48102;47.526;19.072;2023-04-03T05:30:32;100454.59;;;4.88;100.00
62111;BME280;48102;47.526;19.072;2023-04-03T05:33:37;100448.75;;;4.80;100.00
62111;BME280;48102;47.526;19.072;2023-04-03T05:36:40;100449.00;;;4.69;100.00
62111;BME280;48102;47.526;19.072;2023-04-03T05:39:43;100445.41;;;4.73;100.00
62111;BME280;48102;47.526;19.072;2023-04-03T05:42:46;100448.25;;;4.64;100.00
62111;BME280;48102;47.526;19.072;2023-04-03T05:45:50;100454.75;;;4.46;100.00
62111;BME280;48102;47.526;19.072;2023-04-03T05:48:53;100451.53;;;4.35;100.00
62111;BME280;48102;47.526;19.072;2023-04-03T05:51:56;100459.44;;;4.30;100.00
62111;BME280;48102;47.526;19.072;2023-04-03T05:55:00;100459.41;;;4.33;100.00
62111;BME280;48102;47.526;19.072;2023-04-03T05:58:04;100461.94;;;4.36;100.00
62111;BME280;48102;47.526;19.072;2023-04-03T06:01:10;100460.94;;;4.40;100.00
62111;BME280;48102;47.526;19.072;2023-04-03T06:04:13;100458.44;;;4.37;100.00
62111;BME280;48102;47.526;19.072;2023-04-03T06:07:21;100449.66;;;4.41;100.00
62111;BME280;48102;47.526;19.072;2023-04-03T06:10:25;100454.66;;;4.49;100.00
62111;BME280;48102;47.526;19.072;2023-04-03T06:13:28;100458.00;;;4.56;100.00
62111;BME280;48102;47.526;19.072;2023-04-03T06:16:32;100463.16;;;4.59;100.00
62111;BME280;48102;47.526;19.072;2023-04-03T06:19:35;100457.03;;;4.60;100.00
62111;BME280;48102;47.526;19.072;2023-04-03T06:22:39;100463.78;;;4.68;100.00
62111;BME280;48102;47.526;19.072;2023-04-03T06:25:42;100470.38;;;4.83;100.00
62111;BME280;48102;47.526;19.072;2023-04-03T06:28:45;100474.13;;;5.09;100.00
62111;BME280;48102;47.526;19.072;2023-04-03T06:31:48;100474.72;;;5.52;100.00
62111;BME280;48102;47.526;19.072;2023-04-03T06:34:51;100471.44;;;5.77;99.25
62111;BME280;48102;47.526;19.072;2023-04-03T06:37:56;100464.97;;;5.92;100.00
62111;BME280;48102;47.526;19.072;2023-04-03T06:40:59;100475.16;;;6.01;97.86
62111;BME280;48102;47.526;19.072;2023-04-03T06:44:02;100473.78;;;6.17;95.03
62111;BME280;48102;47.526;19.072;2023-04-03T06:47:05;100478.03;;;6.21;93.60
62111;BME280;48102;47.526;19.072;2023-04-03T06:50:10;100478.78;;;6.26;94.14
62111;BME280;48102;47.526;19.072;2023-04-03T06:53:14;100476.28;;;6.22;92.72
62111;BME280;48102;47.526;19.072;2023-04-03T06:56:17;100478.28;;;6.14;92.55
62111;BME280;48102;47.526;19.072;2023-04-03T06:59:20;100486.06;;;6.15;86.50
62111;BME280;48102;47.526;19.072;2023-04-03T07:02:23;100485.88;;;6.21;90.04
62111;BME280;48102;47.526;19.072;2023-04-03T07:05:26;100489.81;;;6.36;85.50
62111;BME280;48102;47.526;19.072;2023-04-03T07:08:29;100502.00;;;6.65;85.38
62111;BME280;48102;47.526;19.072;2023-04-03T07:11:32;100494.81;;;6.98;80.58
62111;BME280;48102;47.526;19.072;2023-04-03T07:14:35;100509.53;;;7.29;81.21
62111;BME280;48102;47.526;19.072;2023-04-03T07:17:38;100508.88;;;7.74;77.18
62111;BME280;48102;47.526;19.072;2023-04-03T07:20:41;100521.81;;;8.27;73.34
62111;BME280;48102;47.526;19.072;2023-04-03T07:23:44;100514.25;;;8.43;65.38
62111;BME280;48102;47.526;19.072;2023-04-03T07:26:50;100507.91;;;8.70;65.27
62111;BME280;48102;47.526;19.072;2023-04-03T07:29:53;100505.44;;;9.10;62.52
62111;BME280;48102;47.526;19.072;2023-04-03T07:32:57;100511.91;;;9.23;57.05
62111;BME280;48102;47.526;19.072;2023-04-03T07:36:01;100518.72;;;9.28;56.35
62111;BME280;48102;47.526;19.072;2023-04-03T07:39:04;100513.91;;;9.38;58.54
62111;BME280;48102;47.526;19.072;2023-04-03T07:42:07;100515.22;;;9.89;60.58
62111;BME280;48102;47.526;19.072;2023-04-03T07:45:10;100521.97;;;10.15;55.10
62111;BME280;48102;47.526;19.072;2023-04-03T07:48:13;100510.88;;;10.27;52.71
62111;BME280;48102;47.526;19.072;2023-04-03T07:51:16;100518.66;;;10.30;53.03
62111;BME280;48102;47.526;19.072;2023-04-03T07:54:19;100515.75;;;10.37;54.85
62111;BME280;48102;47.526;19.072;2023-04-03T07:57:21;100525.81;;;10.84;54.93
62111;BME280;48102;47.526;19.072;2023-04-03T08:00:24;100519.72;;;11.00;52.98
62111;BME280;48102;47.526;19.072;2023-04-03T08:03:28;100527.63;;;11.00;52.61
62111;BME280;48102;47.526;19.072;2023-04-03T08:06:31;100524.97;;;11.37;52.21
62111;BME280;48102;47.526;19.072;2023-04-03T08:09:48;100526.38;;;11.61;49.24
62111;BME280;48102;47.526;19.072;2023-04-03T08:12:51;100529.31;;;11.55;50.53
62111;BME280;48102;47.526;19.072;2023-04-03T08:15:54;100532.34;;;11.65;50.55
62111;BME280;48102;47.526;19.072;2023-04-03T08:18:59;100533.59;;;11.75;48.09
62111;BME280;48102;47.526;19.072;2023-04-03T08:22:02;100533.75;;;11.89;50.55
62111;BME280;48102;47.526;19.072;2023-04-03T08:25:05;100528.00;;;11.81;49.94
62111;BME280;48102;47.526;19.072;2023-04-03T08:28:10;100523.78;;;11.77;48.03
62111;BME280;48102;47.526;19.072;2023-04-03T08:31:16;100529.09;;;11.94;50.90
62111;BME280;48102;47.526;19.072;2023-04-03T08:34:21;100540.72;;;12.08;49.29
62111;BME280;48102;47.526;19.072;2023-04-03T08:37:23;100531.47;;;12.32;47.20
62111;BME280;48102;47.526;19.072;2023-04-03T08:40:26;100531.78;;;12.75;45.60
62111;BME280;48102;47.526;19.072;2023-04-03T08:43:47;100532.31;;;13.12;46.60
62111;BME280;48102;47.526;19.072;2023-04-03T08:47:04;100538.06;;;13.50;44.35
62111;BME280;48102;47.526;19.072;2023-04-03T08:50:17;100538.72;;;13.39;43.45
62111;BME280;48102;47.526;19.072;2023-04-03T08:53:25;100540.44;;;13.54;43.45
62111;BME280;48102;47.526;19.072;2023-04-03T08:56:33;100539.06;;;13.63;42.35
62111;BME280;48102;47.526;19.072;2023-04-03T08:59:37;100544.47;;;13.62;42.79
62111;BME280;48102;47.526;19.072;2023-04-03T09:02:53;100537.66;;;13.42;42.25
62111;BME280;48102;47.526;19.072;2023-04-03T09:06:04;100533.44;;;13.07;43.29
62111;BME280;48102;47.526;19.072;2023-04-03T09:12:39;100529.38;;;12.54;45.35
62111;BME280;48102;47.526;19.072;2023-04-03T09:15:44;100539.72;;;12.26;44.42
62111;BME280;48102;47.526;19.072;2023-04-03T09:18:48;100546.75;;;12.27;45.75
62111;BME280;48102;47.526;19.072;2023-04-03T09:21:57;100540.84;;;12.04;43.71
62111;BME280;48102;47.526;19.072;2023-04-03T09:25:13;100542.06;;;12.32;47.04
62111;BME280;48102;47.526;19.072;2023-04-03T09:28:16;100547.44;;;12.46;42.72
62111;BME280;48102;47.526;19.072;2023-04-03T09:31:23;100536.47;;;11.70;43.99
62111;BME280;48102;47.526;19.072;2023-04-03T09:34:36;100541.06;;;11.84;44.17
62111;BME280;48102;47.526;19.072;2023-04-03T09:37:41;100540.84;;;11.89;45.32
62111;BME280;48102;47.526;19.072;2023-04-03T09:40:50;100547.00;;;12.22;45.58
62111;BME280;48102;47.526;19.072;2023-04-03T09:43:54;100545.75;;;12.45;43.78
62111;BME280;48102;47.526;19.072;2023-04-03T09:46:58;100533.75;;;12.87;42.70
62111;BME280;48102;47.526;19.072;2023-04-03T09:50:10;100539.25;;;13.30;42.67
62111;BME280;48102;47.526;19.072;2023-04-03T09:56:33;100530.97;;;13.50;41.00
62111;BME280;48102;47.526;19.072;2023-04-03T10:00:19;100527.16;;;13.56;44.17
62111;BME280;48102;47.526;19.072;2023-04-03T10:03:30;100525.25;;;13.12;42.96
62111;BME280;48102;47.526;19.072;2023-04-03T10:06:49;100526.66;;;12.88;44.89
62111;BME280;48102;47.526;19.072;2023-04-03T10:10:22;100522.81;;;12.62;45.05
62111;BME280;48102;47.526;19.072;2023-04-03T10:13:26;100530.22;;;12.39;45.31
62111;BME280;48102;47.526;19.072;2023-04-03T10:16:36;100533.19;;;12.33;45.18
62111;BME280;48102;47.526;19.072;2023-04-03T10:19:45;100533.13;;;12.17;44.02
62111;BME280;48102;47.526;19.072;2023-04-03T10:23:03;100530.81;;;12.60;45.12
62111;BME280;48102;47.526;19.072;2023-04-03T10:36:33;100531.34;;;12.83;45.45
62111;BME280;48102;47.526;19.072;2023-04-03T10:46:53;100531.09;;;11.72;44.12
62111;BME280;48102;47.526;19.072;2023-04-03T10:53:37;100534.63;;;12.23;46.20
62111;BME280;48102;47.526;19.072;2023-04-03T10:56:46;100522.78;;;12.30;43.19
62111;BME280;48102;47.526;19.072;2023-04-03T11:00:09;100521.00;;;12.46;41.98
62111;BME280;48102;47.526;19.072;2023-04-03T11:03:30;100520.94;;;12.79;42.49
62111;BME280;48102;47.526;19.072;2023-04-03T11:06:43;100526.38;;;13.24;43.16
62111;BME280;48102;47.526;19.072;2023-04-03T11:09:55;100522.31;;;13.17;43.08
62111;BME280;48102;47.526;19.072;2023-04-03T11:13:24;100523.81;;;13.06;42.49
62111;BME280;48102;47.526;19.072;2023-04-03T11:16:33;100516.22;;;12.69;43.10
62111;BME280;48102;47.526;19.072;2023-04-03T11:19:57;100518.03;;;12.68;44.08
62111;BME280;48102;47.526;19.072;2023-04-03T11:23:08;100520.94;;;12.64;42.10
62111;BME280;48102;47.526;19.072;2023-04-03T11:26:19;100512.13;;;12.95;41.10
62111;BME280;48102;47.526;19.072;2023-04-03T11:29:36;100512.06;;;12.80;41.13
62111;BME280;48102;47.526;19.072;2023-04-03T11:36:09;100504.38;;;12.76;43.97
62111;BME280;48102;47.526;19.072;2023-04-03T11:39:31;100499.41;;;13.47;41.86
62111;BME280;48102;47.526;19.072;2023-04-03T11:42:41;100497.41;;;13.95;40.73
62111;BME280;48102;47.526;19.072;2023-04-03T11:52:56;100494.66;;;13.83;39.51
62111;BME280;48102;47.526;19.072;2023-04-03T12:02:37;100495.66;;;12.90;41.08
62111;BME280;48102;47.526;19.072;2023-04-03T12:12:55;100496.72;;;12.55;42.38
62111;BME280;48102;47.526;19.072;2023-04-03T12:16:00;100492.06;;;12.12;42.54
62111;BME280;48102;47.526;19.072;2023-04-03T12:19:27;100488.00;;;12.22;42.96
62111;BME280;48102;47.526;19.072;2023-04-03T12:23:07;100484.16;;;12.43;41.21
62111;BME280;48102;47.526;19.072;2023-04-03T12:26:21;100482.62;;;12.87;43.76
62111;BME280;48102;47.526;19.072;2023-04-03T12:29:29;100482.84;;;13.14;42.04
62111;BME280;48102;47.526;19.072;2023-04-03T12:32:50;100484.31;;;13.34;41.49
62111;BME280;48102;47.526;19.072;2023-04-03T12:36:21;100478.59;;;13.41;39.53
62111;BME280;48102;47.526;19.072;2023-04-03T12:40:10;100482.28;;;13.39;40.27
62111;BME280;48102;47.526;19.072;2023-04-03T12:46:51;100479.31;;;13.29;42.49
62111;BME280;48102;47.526;19.072;2023-04-03T12:49:54;100480.94;;;13.16;39.78
62111;BME280;48102;47.526;19.072;2023-04-03T12:59:25;100471.13;;;12.88;41.46
62111;BME280;48102;47.526;19.072;2023-04-03T13:02:30;100469.78;;;13.11;42.70
62111;BME280;48102;47.526;19.072;2023-04-03T13:05:34;100467.34;;;12.92;41.30
62111;BME280;48102;47.526;19.072;2023-04-03T13:08:48;100463.03;;;12.75;41.37
62111;BME280;48102;47.526;19.072;2023-04-03T13:12:03;100456.91;;;13.04;40.05
62111;BME280;48102;47.526;19.072;2023-04-03T13:15:24;100447.88;;;13.39;39.87
62111;BME280;48102;47.526;19.072;2023-04-03T13:21:32;100442.72;;;14.50;37.31
62111;BME280;48102;47.526;19.072;2023-04-03T13:24:38;100449.00;;;14.76;39.73
62111;BME280;48102;47.526;19.072;2023-04-03T13:27:42;100433.87;;;14.91;38.53
62111;BME280;48102;47.526;19.072;2023-04-03T13:31:18;100445.28;;;15.05;38.93
62111;BME280;48102;47.526;19.072;2023-04-03T13:34:23;100434.09;;;15.53;38.23
62111;BME280;48102;47.526;19.072;2023-04-03T13:37:31;100429.28;;;15.45;36.51
62111;BME280;48102;47.526;19.072;2023-04-03T13:40:55;100433.56;;;15.48;38.13
62111;BME280;48102;47.526;19.072;2023-04-03T13:47:23;100436.41;;;15.57;36.63
62111;BME280;48102;47.526;19.072;2023-04-03T13:50:27;100434.75;;;15.82;35.81
62111;BME280;48102;47.526;19.072;2023-04-03T13:53:33;100431.59;;;16.26;36.26
62111;BME280;48102;47.526;19.072;2023-04-03T13:56:38;100422.22;;;17.41;34.83
62111;BME280;48102;47.526;19.072;2023-04-03T13:59:44;100426.87;;;17.15;33.03
62111;BME280;48102;47.526;19.072;2023-04-03T14:02:48;100425.00;;;17.50;33.18
62111;BME280;48102;47.526;19.072;2023-04-03T14:05:51;100419.56;;;18.42;31.97
62111;BME280;48102;47.526;19.072;2023-04-03T14:08:54;100408.97;;;18.51;31.69
62111;BME280;48102;47.526;19.072;2023-04-03T14:12:01;100410.03;;;17.94;33.51
62111;BME280;48102;47.526;19.072;2023-04-03T14:18:19;100405.69;;;16.65;34.07
62111;BME280;48102;47.526;19.072;2023-04-03T14:21:23;100410.69;;;15.96;34.87
62111;BME280;48102;47.526;19.072;2023-04-03T14:24:26;100399.56;;;15.53;34.60
62111;BME280;48102;47.526;19.072;2023-04-03T14:27:36;100404.56;;;14.79;38.90
62111;BME280;48102;47.526;19.072;2023-04-03T14:30:40;100392.87;;;14.28;36.73
62111;BME280;48102;47.526;19.072;2023-04-03T14:33:46;100409.22;;;13.65;37.76
62111;BME280;48102;47.526;19.072;2023-04-03T14:36:49;100404.34;;;13.28;39.23
62111;BME280;48102;47.526;19.072;2023-04-03T14:39:53;100409.84;;;12.95;38.85
62111;BME280;48102;47.526;19.072;2023-04-03T14:42:56;100400.72;;;12.85;40.60
62111;BME280;48102;47.526;19.072;2023-04-03T14:46:00;100406.97;;;12.68;41.35
62111;BME280;48102;47.526;19.072;2023-04-03T14:49:14;100404.44;;;12.67;40.31
62111;BME280;48102;47.526;19.072;2023-04-03T14:52:29;100407.19;;;12.65;39.29
62111;BME280;48102;47.526;19.072;2023-04-03T14:55:33;100405.81;;;12.42;39.95
62111;BME280;48102;47.526;19.072;2023-04-03T14:58:35;100411.03;;;12.28;39.82
62111;BME280;48102;47.526;19.072;2023-04-03T15:01:39;100414.62;;;12.11;39.85
62111;BME280;48102;47.526;19.072;2023-04-03T15:04:42;100409.06;;;12.00;41.71
62111;BME280;48102;47.526;19.072;2023-04-03T15:07:55;100406.69;;;12.27;43.16
62111;BME280;48102;47.526;19.072;2023-04-03T15:10:58;100404.97;;;12.26;39.98
62111;BME280;48102;47.526;19.072;2023-04-03T15:14:01;100408.12;;;12.17;40.02
62111;BME280;48102;47.526;19.072;2023-04-03T15:17:05;100406.69;;;12.11;40.46
62111;BME280;48102;47.526;19.072;2023-04-03T15:20:14;100406.69;;;12.11;41.97
62111;BME280;48102;47.526;19.072;2023-04-03T15:23:17;100411.13;;;12.11;41.93
62111;BME280;48102;47.526;19.072;2023-04-03T15:26:20;100415.03;;;12.03;41.74
